createdAt,value
2023-07-03T00:00:55.270Z,60.86
2023-07-03T00:01:59.535Z,60.66
2023-07-03T00:03:03.674Z,60.32
2023-07-03T00:04:05.815Z,60.04
2023-07-03T00:05:12.582Z,60.32
2023-07-03T00:06:14.447Z,59.75
2023-07-03T00:07:16.697Z,60.67
2023-07-03T00:08:19.321Z,60.58
2023-07-03T00:09:21.242Z,60.02
2023-07-03T00:10:23.268Z,60.12
2023-07-03T00:11:25.217Z,60.74
2023-07-03T00:12:27.516Z,60.58
2023-07-03T00:13:29.619Z,59.93
2023-07-03T00:14:31.507Z,60.27
2023-07-03T00:15:33.544Z,60.19
2023-07-03T00:16:35.467Z,59.84
2023-07-03T00:17:38.778Z,59.95
2023-07-03T00:18:40.832Z,60.00
2023-07-03T00:19:42.774Z,59.46
2023-07-03T00:20:47.106Z,59.32
2023-07-03T00:21:49.258Z,59.40
2023-07-03T00:22:54.024Z,60.06
2023-07-03T00:23:55.906Z,59.79
2023-07-03T00:24:57.833Z,59.61
2023-07-03T00:25:59.828Z,59.77
2023-07-03T00:27:02.305Z,59.93
2023-07-03T00:28:04.712Z,60.14
2023-07-03T00:29:06.780Z,60.33
2023-07-03T00:30:09.305Z,60.63
2023-07-03T00:31:11.347Z,60.24
2023-07-03T00:32:13.416Z,60.06
2023-07-03T00:33:15.714Z,60.21
2023-07-03T00:34:19.967Z,60.65
2023-07-03T00:35:22.021Z,61.05
2023-07-03T00:36:24.015Z,60.85
2023-07-03T00:37:26.275Z,61.07
2023-07-03T00:38:28.544Z,61.26
2023-07-03T00:39:30.477Z,61.52
2023-07-03T00:40:32.433Z,61.15
2023-07-03T00:41:34.431Z,61.14
2023-07-03T00:42:37.533Z,61.56
2023-07-03T00:43:42.511Z,61.29
2023-07-03T00:44:44.522Z,61.58
2023-07-03T00:45:47.788Z,60.75
2023-07-03T00:46:51.926Z,62.00
2023-07-03T00:47:54.372Z,61.96
2023-07-03T00:48:57.594Z,62.18
2023-07-03T00:50:00.785Z,61.60
2023-07-03T00:51:03.136Z,62.35
2023-07-03T00:52:06.242Z,61.98
2023-07-03T00:53:08.680Z,62.26
2023-07-03T00:54:11.750Z,61.62
2023-07-03T00:55:15.019Z,61.78
2023-07-03T00:56:16.951Z,61.71
2023-07-03T00:57:18.988Z,61.94
2023-07-03T00:58:21.046Z,62.19
2023-07-03T00:59:23.428Z,63.00
2023-07-03T01:00:34.259Z,62.44
2023-07-03T01:01:44.920Z,61.95
2023-07-03T01:03:08.035Z,61.88
2023-07-03T01:04:41.974Z,61.61
2023-07-03T01:05:51.307Z,62.25
2023-07-03T01:07:01.510Z,62.29
2023-07-03T01:08:03.501Z,62.45
2023-07-03T01:09:05.765Z,62.55
2023-07-03T01:10:15.314Z,62.35
2023-07-03T01:11:20.401Z,62.19
2023-07-03T01:12:24.656Z,61.74
2023-07-03T01:13:30.725Z,62.21
2023-07-03T01:14:35.083Z,63.21
2023-07-03T01:15:41.601Z,63.06
2023-07-03T01:16:46.860Z,62.60
2023-07-03T01:17:52.431Z,62.52
2023-07-03T01:18:54.815Z,63.62
2023-07-03T01:19:59.092Z,63.38
2023-07-03T01:21:24.586Z,63.45
2023-07-03T01:22:31.773Z,63.81
2023-07-03T01:23:52.872Z,64.02
2023-07-03T01:25:11.291Z,63.74
2023-07-03T01:26:16.018Z,63.70
2023-07-03T01:27:22.132Z,65.10
2023-07-03T01:28:26.515Z,65.47
2023-07-03T01:29:29.672Z,64.72
2023-07-03T01:30:32.836Z,64.57
2023-07-03T01:31:37.098Z,64.61
2023-07-03T01:32:39.533Z,65.11
2023-07-03T01:33:45.900Z,65.79
2023-07-03T01:34:50.041Z,65.86
2023-07-03T01:35:55.000Z,64.94
2023-07-03T01:36:59.779Z,64.54
2023-07-03T01:38:02.911Z,64.67
2023-07-03T01:39:05.746Z,63.88
2023-07-03T01:40:13.919Z,63.83
2023-07-03T01:41:17.773Z,63.98
2023-07-03T01:42:26.341Z,64.32
2023-07-03T01:43:29.299Z,65.22
2023-07-03T01:44:31.636Z,65.16
2023-07-03T01:45:45.116Z,65.21
2023-07-03T01:46:47.171Z,66.00
2023-07-03T01:47:49.460Z,66.05
2023-07-03T01:48:51.537Z,65.75
2023-07-03T01:49:53.886Z,66.21
2023-07-03T01:50:55.972Z,66.33
2023-07-03T01:52:17.941Z,67.14
2023-07-03T01:53:26.608Z,67.81
2023-07-03T01:54:36.752Z,67.78
2023-07-03T01:55:51.186Z,68.20
2023-07-03T01:56:56.080Z,68.71
2023-07-03T01:58:09.846Z,68.75
2023-07-03T01:59:15.541Z,69.16
2023-07-03T02:00:27.311Z,68.93
2023-07-03T02:01:38.698Z,69.11
2023-07-03T02:02:43.872Z,68.78
2023-07-03T02:03:53.571Z,69.43
2023-07-03T02:05:10.362Z,69.74
2023-07-03T02:06:21.650Z,69.84
2023-07-03T02:07:25.540Z,70.17
2023-07-03T02:08:30.514Z,69.87
2023-07-03T02:09:33.557Z,69.23
2023-07-03T02:10:36.329Z,69.06
2023-07-03T02:11:38.452Z,69.24
2023-07-03T02:12:46.124Z,69.25
2023-07-03T02:13:49.452Z,69.36
2023-07-03T02:14:51.923Z,68.82
2023-07-03T02:15:53.902Z,68.56
2023-07-03T02:16:56.071Z,68.73
2023-07-03T02:17:58.478Z,69.10
2023-07-03T02:19:00.822Z,68.62
2023-07-03T02:20:03.674Z,68.76
2023-07-03T02:21:06.441Z,69.17
2023-07-03T02:22:08.890Z,69.05
2023-07-03T02:23:12.706Z,68.65
2023-07-03T02:24:17.249Z,69.47
2023-07-03T02:25:19.249Z,69.66
2023-07-03T02:26:21.227Z,69.41
2023-07-03T02:27:23.178Z,68.57
2023-07-03T02:28:25.180Z,68.49
2023-07-03T02:29:27.547Z,68.77
2023-07-03T02:30:29.497Z,68.33
2023-07-03T02:31:31.601Z,68.02
2023-07-03T02:32:38.770Z,67.54
2023-07-03T02:33:40.749Z,67.07
2023-07-03T02:34:42.988Z,66.91
2023-07-03T02:35:45.036Z,66.62
2023-07-03T02:36:47.221Z,66.44
2023-07-03T02:37:49.347Z,66.85
2023-07-03T02:38:51.507Z,67.65
2023-07-03T02:39:53.792Z,68.00
2023-07-03T02:40:55.702Z,67.83
2023-07-03T02:41:58.958Z,67.59
2023-07-03T02:43:01.176Z,67.99
2023-07-03T02:44:03.160Z,68.31
2023-07-03T02:45:07.414Z,67.65
2023-07-03T02:46:09.827Z,67.75
2023-07-03T02:47:12.036Z,67.63
2023-07-03T02:48:15.018Z,67.54
2023-07-03T02:49:18.540Z,67.16
2023-07-03T02:50:21.062Z,66.76
2023-07-03T02:51:23.195Z,66.84
2023-07-03T02:52:28.326Z,66.69
2023-07-03T02:53:30.571Z,66.36
2023-07-03T02:54:33.909Z,66.40
2023-07-03T02:55:36.573Z,66.52
2023-07-03T02:56:39.256Z,66.92
2023-07-03T02:57:41.930Z,67.46
2023-07-03T02:58:44.150Z,68.23
2023-07-03T02:59:46.505Z,68.84
2023-07-03T03:00:49.378Z,68.44
2023-07-03T03:01:51.626Z,68.54
2023-07-03T03:02:54.153Z,68.67
2023-07-03T03:03:56.739Z,68.88
2023-07-03T03:04:59.067Z,68.75
2023-07-03T03:06:01.767Z,68.92
2023-07-03T03:07:03.779Z,68.87
2023-07-03T03:08:05.687Z,69.05
2023-07-03T03:09:08.219Z,68.59
2023-07-03T03:10:10.864Z,68.31
2023-07-03T03:11:13.126Z,68.16
2023-07-03T03:12:15.418Z,68.18
2023-07-03T03:13:17.809Z,68.27
2023-07-03T03:14:20.241Z,68.24
2023-07-03T03:15:22.196Z,68.01
2023-07-03T03:16:24.830Z,68.72
2023-07-03T03:17:26.937Z,68.99
2023-07-03T03:18:29.029Z,68.82
2023-07-03T03:19:30.951Z,68.49
2023-07-03T03:20:33.010Z,68.19
2023-07-03T03:21:35.274Z,68.24
2023-07-03T03:22:37.299Z,68.54
2023-07-03T03:23:39.150Z,68.28
2023-07-03T03:24:41.291Z,68.33
2023-07-03T03:25:43.702Z,67.96
2023-07-03T03:26:45.889Z,68.07
2023-07-03T03:27:47.845Z,67.84
2023-07-03T03:28:49.844Z,67.70
2023-07-03T03:29:51.956Z,68.24
2023-07-03T03:30:54.154Z,68.03
2023-07-03T03:31:56.355Z,68.22
2023-07-03T03:32:58.280Z,68.28
2023-07-03T03:34:00.325Z,68.43
2023-07-03T03:35:02.515Z,68.10
2023-07-03T03:36:04.791Z,67.93
2023-07-03T03:37:07.366Z,68.46
2023-07-03T03:38:09.233Z,68.85
2023-07-03T03:39:11.177Z,69.12
2023-07-03T03:40:13.186Z,68.82
2023-07-03T03:41:15.260Z,68.35
2023-07-03T03:42:18.216Z,68.89
2023-07-03T03:43:20.608Z,69.21
2023-07-03T03:44:22.937Z,68.51
2023-07-03T03:45:25.628Z,67.85
2023-07-03T03:46:27.516Z,68.42
2023-07-03T03:47:29.841Z,68.98
2023-07-03T03:48:34.171Z,69.55
2023-07-03T03:49:37.898Z,69.75
2023-07-03T03:50:39.829Z,68.69
2023-07-03T03:51:41.906Z,68.18
2023-07-03T03:52:44.463Z,68.43
2023-07-03T03:53:46.376Z,67.95
2023-07-03T03:54:48.537Z,66.75
2023-07-03T03:55:52.075Z,66.44
2023-07-03T03:56:54.791Z,65.52
2023-07-03T03:57:57.199Z,65.54
2023-07-03T03:58:59.118Z,65.61
2023-07-03T04:00:01.009Z,66.45
2023-07-03T04:01:03.440Z,66.43
2023-07-03T04:02:05.890Z,66.67
2023-07-03T04:03:07.876Z,66.03
2023-07-03T04:04:09.835Z,66.55
2023-07-03T04:05:12.828Z,65.73
2023-07-03T04:06:17.536Z,65.95
2023-07-03T04:07:19.679Z,65.54
2023-07-03T04:08:21.780Z,65.96
2023-07-03T04:09:23.620Z,65.62
2023-07-03T04:10:25.634Z,66.24
2023-07-03T04:11:29.353Z,67.14
2023-07-03T04:12:31.601Z,66.97
2023-07-03T04:13:33.569Z,66.18
2023-07-03T04:14:35.513Z,66.57
2023-07-03T04:15:52.766Z,66.52
2023-07-03T04:16:58.674Z,66.25
2023-07-03T04:18:01.930Z,65.93
2023-07-03T04:19:03.918Z,66.48
2023-07-03T04:20:14.374Z,66.08
2023-07-03T04:21:18.862Z,67.40
2023-07-03T04:22:21.031Z,66.57
2023-07-03T04:23:23.558Z,65.12
2023-07-03T04:24:25.928Z,64.33
2023-07-03T04:25:28.008Z,64.47
2023-07-03T04:26:29.880Z,64.18
2023-07-03T04:27:31.799Z,63.97
2023-07-03T04:28:33.954Z,64.12
2023-07-03T04:29:35.849Z,63.26
2023-07-03T04:30:38.373Z,63.63
2023-07-03T04:31:40.425Z,63.60
2023-07-03T04:32:42.423Z,63.93
2023-07-03T04:33:46.668Z,64.26
2023-07-03T04:34:48.517Z,64.63
2023-07-03T04:35:50.562Z,64.53
2023-07-03T04:36:52.697Z,64.29
2023-07-03T04:37:54.548Z,65.37
2023-07-03T04:38:58.422Z,63.93
2023-07-03T04:40:00.321Z,62.40
2023-07-03T04:41:02.319Z,62.26
2023-07-03T04:42:04.711Z,62.36
2023-07-03T04:43:09.411Z,62.38
2023-07-03T04:44:13.859Z,62.64
2023-07-03T04:45:17.274Z,63.06
2023-07-03T04:46:26.760Z,63.18
2023-07-03T04:47:28.828Z,63.84
2023-07-03T04:48:32.513Z,64.00
2023-07-03T04:49:34.902Z,63.33
2023-07-03T04:50:37.078Z,62.94
2023-07-03T04:51:41.016Z,63.41
2023-07-03T04:52:45.106Z,63.62
2023-07-03T04:53:46.993Z,62.80
2023-07-03T04:54:49.194Z,61.35
2023-07-03T04:55:52.127Z,61.35
2023-07-03T04:56:55.091Z,61.67
2023-07-03T04:57:58.466Z,61.83
2023-07-03T04:59:00.368Z,61.16
2023-07-03T05:00:02.508Z,60.95
2023-07-03T05:01:06.144Z,60.93
2023-07-03T05:02:08.077Z,60.67
2023-07-03T05:03:10.556Z,59.96
2023-07-03T05:04:13.293Z,60.10
2023-07-03T05:05:17.698Z,60.60
2023-07-03T05:06:19.689Z,60.82
2023-07-03T05:07:23.517Z,60.57
2023-07-03T05:08:25.771Z,60.33
2023-07-03T05:09:27.668Z,59.65
2023-07-03T05:10:30.622Z,59.83
2023-07-03T05:11:34.270Z,59.45
2023-07-03T05:12:37.226Z,58.94
2023-07-03T05:13:39.108Z,59.04
2023-07-03T05:14:40.981Z,59.35
2023-07-03T05:15:43.377Z,59.09
2023-07-03T05:16:45.256Z,59.70
2023-07-03T05:17:52.406Z,59.48
2023-07-03T05:18:54.267Z,57.29
2023-07-03T05:19:56.879Z,56.82
2023-07-03T05:20:59.028Z,57.11
2023-07-03T05:22:00.903Z,56.01
2023-07-03T05:23:02.811Z,56.29
2023-07-03T05:24:04.937Z,56.78
2023-07-03T05:25:08.973Z,56.42
2023-07-03T05:26:11.154Z,57.55
2023-07-03T05:27:13.055Z,58.16
2023-07-03T05:28:15.216Z,59.01
2023-07-03T05:29:17.061Z,58.23
2023-07-03T05:30:19.169Z,58.67
2023-07-03T05:31:23.904Z,58.57
2023-07-03T05:32:26.495Z,57.92
2023-07-03T05:33:29.705Z,57.87
2023-07-03T05:34:32.966Z,56.66
2023-07-03T05:35:42.501Z,55.67
2023-07-03T05:36:50.694Z,55.46
2023-07-03T05:37:52.587Z,55.20
2023-07-03T05:38:54.453Z,55.07
2023-07-03T05:39:56.702Z,54.50
2023-07-03T05:40:58.584Z,55.02
2023-07-03T05:42:00.813Z,55.17
2023-07-03T05:43:02.718Z,54.96
2023-07-03T05:44:04.698Z,54.55
2023-07-03T05:45:06.947Z,53.29
2023-07-03T05:46:08.798Z,52.59
2023-07-03T05:47:11.654Z,53.29
2023-07-03T05:48:13.637Z,53.40
2023-07-03T05:49:15.595Z,53.80
2023-07-03T05:50:17.493Z,54.23
2023-07-03T05:51:19.520Z,54.32
2023-07-03T05:52:21.751Z,53.31
2023-07-03T05:53:25.000Z,53.78
2023-07-03T05:54:27.117Z,53.24
2023-07-03T05:55:28.995Z,53.31
2023-07-03T05:56:30.873Z,53.65
2023-07-03T05:57:33.108Z,53.57
2023-07-03T05:58:34.978Z,53.16
2023-07-03T05:59:38.862Z,52.69
2023-07-03T06:00:41.437Z,51.01
2023-07-03T06:01:44.338Z,51.44
2023-07-03T06:02:48.455Z,51.26
2023-07-03T06:03:51.204Z,49.54
2023-07-03T06:04:53.155Z,50.11
2023-07-03T06:05:55.282Z,49.43
2023-07-03T06:06:57.995Z,49.20
2023-07-03T06:07:59.852Z,48.42
2023-07-03T06:09:01.690Z,48.51
2023-07-03T06:10:04.833Z,49.90
2023-07-03T06:11:06.851Z,50.34
2023-07-03T06:12:09.388Z,48.61
2023-07-03T06:13:11.447Z,48.07
2023-07-03T06:14:18.519Z,47.02
2023-07-03T06:15:20.391Z,47.11
2023-07-03T06:16:22.300Z,47.28
2023-07-03T06:17:26.156Z,46.17
2023-07-03T06:18:28.662Z,46.26
2023-07-03T06:19:31.062Z,47.31
2023-07-03T06:20:34.588Z,45.40
2023-07-03T06:21:36.605Z,45.59
2023-07-03T06:22:42.917Z,45.75
2023-07-03T06:23:44.932Z,45.99
2023-07-03T06:24:47.013Z,46.81
2023-07-03T06:25:49.153Z,47.85
2023-07-03T06:26:51.954Z,45.75
2023-07-03T06:27:54.194Z,45.08
2023-07-03T06:28:56.032Z,44.87
2023-07-03T06:29:57.905Z,45.43
2023-07-03T06:30:59.872Z,45.00
2023-07-03T06:32:01.762Z,44.78
2023-07-03T06:33:03.985Z,44.86
2023-07-03T06:34:05.964Z,45.94
2023-07-03T06:35:08.483Z,45.27
2023-07-03T06:36:10.420Z,44.85
2023-07-03T06:37:12.329Z,45.33
2023-07-03T06:38:14.510Z,44.79
2023-07-03T06:39:16.448Z,43.92
2023-07-03T06:40:19.926Z,43.24
2023-07-03T06:41:22.313Z,44.91
2023-07-03T06:42:24.188Z,42.25
2023-07-03T06:43:29.825Z,42.12
2023-07-03T06:44:31.692Z,42.99
2023-07-03T06:45:38.003Z,42.93
2023-07-03T06:46:40.496Z,43.03
2023-07-03T06:47:42.587Z,43.44
2023-07-03T06:48:44.862Z,42.90
2023-07-03T06:49:46.818Z,41.92
2023-07-03T06:50:48.701Z,42.01
2023-07-03T06:51:50.544Z,41.66
2023-07-03T06:52:52.431Z,41.04
2023-07-03T06:53:54.699Z,41.48
2023-07-03T06:54:56.576Z,42.51
2023-07-03T06:55:59.964Z,42.40
2023-07-03T06:57:02.158Z,42.42
2023-07-03T06:58:04.258Z,42.09
2023-07-03T06:59:06.442Z,42.17
2023-07-03T07:00:09.952Z,41.42
2023-07-03T07:01:13.452Z,41.71
2023-07-03T07:02:15.360Z,40.62
2023-07-03T07:03:17.408Z,40.83
2023-07-03T07:04:19.835Z,41.36
2023-07-03T07:05:22.465Z,40.44
2023-07-03T07:06:30.185Z,40.64
2023-07-03T07:07:32.315Z,40.77
2023-07-03T07:08:34.173Z,41.14
2023-07-03T07:09:36.393Z,40.48
2023-07-03T07:10:41.238Z,40.31
2023-07-03T07:11:43.318Z,39.90
2023-07-03T07:12:45.205Z,38.43
2023-07-03T07:13:48.639Z,38.53
2023-07-03T07:14:50.822Z,38.25
2023-07-03T07:15:52.986Z,38.62
2023-07-03T07:16:55.130Z,37.70
2023-07-03T07:17:57.038Z,37.71
2023-07-03T07:19:03.722Z,38.03
2023-07-03T07:20:06.514Z,37.81
2023-07-03T07:21:09.250Z,35.66
2023-07-03T07:22:11.123Z,33.08
2023-07-03T07:23:13.610Z,33.76
2023-07-03T07:24:23.433Z,35.52
2023-07-03T07:25:25.686Z,34.87
2023-07-03T07:26:34.992Z,34.99
2023-07-03T07:27:37.031Z,34.04
2023-07-03T07:28:38.929Z,34.40
2023-07-03T07:29:41.304Z,33.93
2023-07-03T07:30:43.531Z,33.92
2023-07-03T07:31:45.457Z,34.36
2023-07-03T07:32:53.551Z,34.04
2023-07-03T07:33:55.603Z,33.84
2023-07-03T07:34:57.421Z,33.09
2023-07-03T07:35:59.723Z,33.14
2023-07-03T07:37:01.582Z,31.94
2023-07-03T07:38:03.499Z,30.82
2023-07-03T07:39:05.562Z,30.22
2023-07-03T07:40:08.106Z,30.87
2023-07-03T07:41:10.272Z,31.51
2023-07-03T07:42:12.433Z,30.91
2023-07-03T07:43:14.670Z,30.24
2023-07-03T07:44:16.540Z,28.67
2023-07-03T07:45:18.476Z,29.80
2023-07-03T07:46:21.013Z,29.40
2023-07-03T07:47:22.921Z,28.78
2023-07-03T07:48:25.270Z,28.80
2023-07-03T07:49:29.258Z,28.94
2023-07-03T07:50:35.286Z,28.26
2023-07-03T07:51:37.466Z,29.79
2023-07-03T07:52:39.307Z,29.02
2023-07-03T07:53:41.221Z,28.74
2023-07-03T07:54:43.588Z,28.90
2023-07-03T07:55:45.860Z,29.35
2023-07-03T07:56:48.036Z,28.94
2023-07-03T07:57:50.177Z,29.46
2023-07-03T07:58:53.095Z,29.86
2023-07-03T07:59:55.069Z,29.53
2023-07-03T08:00:58.919Z,29.90
2023-07-03T08:02:01.476Z,30.06
2023-07-03T08:03:05.498Z,30.99
2023-07-03T08:04:09.408Z,30.48
2023-07-03T08:05:11.398Z,30.63
2023-07-03T08:06:14.751Z,30.03
2023-07-03T08:07:16.963Z,29.32
2023-07-03T08:08:18.826Z,29.29
2023-07-03T08:09:24.250Z,28.50
2023-07-03T08:10:26.160Z,28.09
2023-07-03T08:11:29.755Z,29.16
2023-07-03T08:12:32.129Z,29.14
2023-07-03T08:13:35.319Z,29.33
2023-07-03T08:14:37.137Z,28.27
2023-07-03T08:15:38.989Z,27.73
2023-07-03T08:16:40.911Z,27.42
2023-07-03T08:17:43.139Z,27.92
2023-07-03T08:18:47.675Z,28.13
2023-07-03T08:19:51.437Z,28.07
2023-07-03T08:20:54.186Z,28.42
2023-07-03T08:21:56.743Z,28.91
2023-07-03T08:22:58.883Z,28.47
2023-07-03T08:24:00.771Z,29.13
2023-07-03T08:25:03.583Z,29.48
2023-07-03T08:26:05.586Z,28.85
2023-07-03T08:27:07.921Z,30.27
2023-07-03T08:28:11.065Z,27.57
2023-07-03T08:29:12.909Z,27.47
2023-07-03T08:30:15.678Z,27.52
2023-07-03T08:31:18.084Z,27.49
2023-07-03T08:32:21.072Z,26.77
2023-07-03T08:33:23.325Z,26.72
2023-07-03T08:34:25.353Z,26.25
2023-07-03T08:37:36.735Z,26.05
2023-07-03T08:38:38.873Z,26.18
2023-07-03T08:39:40.885Z,26.23
2023-07-03T08:40:43.493Z,26.27
2023-07-03T08:41:52.553Z,26.08
2023-07-03T08:43:00.079Z,24.28
2023-07-03T08:44:02.592Z,24.55
2023-07-03T08:45:07.745Z,25.38
2023-07-03T08:46:21.108Z,25.69
2023-07-03T08:47:28.168Z,23.60
2023-07-03T08:48:33.564Z,23.29
2023-07-03T08:49:35.991Z,24.11
2023-07-03T08:50:39.301Z,23.88
2023-07-03T08:51:41.567Z,22.61
2023-07-03T08:52:51.102Z,24.61
2023-07-03T08:53:56.458Z,24.81
2023-07-03T08:54:59.242Z,24.43
2023-07-03T08:56:08.198Z,25.12
2023-07-03T08:57:12.043Z,24.35
2023-07-03T08:58:14.087Z,24.58
2023-07-03T08:59:16.231Z,24.44
2023-07-03T09:00:19.455Z,25.39
2023-07-03T09:01:47.866Z,25.67
2023-07-03T09:03:10.605Z,25.70
2023-07-03T09:04:27.838Z,26.09
2023-07-03T09:05:29.935Z,26.83
2023-07-03T09:06:34.576Z,26.47
2023-07-03T09:08:08.577Z,26.84
2023-07-03T09:09:43.705Z,27.25
2023-07-03T09:10:50.517Z,27.28
2023-07-03T09:12:26.391Z,26.19
2023-07-03T09:13:43.660Z,25.00
2023-07-03T09:14:53.801Z,25.82
2023-07-03T09:16:05.146Z,26.29
2023-07-03T09:17:11.489Z,25.91
2023-07-03T09:18:20.708Z,26.51
2023-07-03T09:19:26.533Z,27.42
2023-07-03T09:20:30.634Z,27.43
2023-07-03T09:21:35.126Z,26.82
2023-07-03T09:23:03.388Z,26.46
2023-07-03T09:24:31.566Z,26.27
2023-07-03T09:25:42.217Z,26.59
2023-07-03T09:26:53.474Z,27.64
2023-07-03T09:27:57.653Z,27.67
2023-07-03T09:29:00.145Z,26.81
2023-07-03T09:30:05.784Z,25.95
2023-07-03T09:31:07.758Z,26.56
2023-07-03T09:32:25.089Z,26.56
2023-07-03T09:33:27.141Z,27.06
2023-07-03T09:34:48.972Z,26.98
2023-07-03T09:35:51.059Z,27.46
2023-07-03T09:37:00.083Z,27.15
2023-07-03T09:38:06.133Z,27.40
2023-07-03T09:39:11.948Z,27.39
2023-07-03T09:40:23.556Z,26.55
2023-07-03T09:41:28.730Z,26.63
2023-07-03T09:42:33.382Z,27.07
2023-07-03T09:43:44.173Z,27.80
2023-07-03T09:44:46.005Z,27.76
2023-07-03T09:45:49.473Z,26.90
2023-07-03T09:46:51.549Z,27.91
2023-07-03T09:47:59.569Z,28.15
2023-07-03T09:49:06.171Z,27.27
2023-07-03T09:50:09.815Z,27.30
2023-07-03T09:51:20.863Z,25.92
2023-07-03T09:52:24.631Z,26.61
2023-07-03T09:53:28.079Z,27.21
2023-07-03T09:54:32.883Z,28.06
2023-07-03T09:55:35.795Z,27.98
2023-07-03T09:56:38.950Z,27.95
2023-07-03T09:57:40.814Z,27.97
2023-07-03T09:58:49.377Z,27.57
2023-07-03T10:00:20.106Z,28.53
2023-07-03T10:03:36.550Z,26.49
2023-07-03T10:07:07.069Z,25.80
2023-07-03T10:08:10.496Z,27.41
2023-07-03T10:11:56.835Z,28.26
2023-07-03T10:13:33.141Z,26.34
2023-07-03T10:15:13.926Z,26.55
2023-07-03T10:16:16.431Z,27.24
2023-07-03T10:17:50.395Z,26.65
2023-07-03T10:18:57.158Z,25.92
2023-07-03T10:20:04.899Z,27.08
2023-07-03T10:21:12.236Z,27.63
2023-07-03T10:22:15.663Z,27.89
2023-07-03T10:23:24.571Z,27.74
2023-07-03T10:24:26.809Z,26.51
2023-07-03T10:25:33.515Z,26.48
2023-07-03T10:26:44.133Z,27.10
2023-07-03T10:27:47.239Z,27.29
2023-07-03T10:29:13.018Z,26.89
2023-07-03T10:30:19.589Z,27.25
2023-07-03T10:31:44.514Z,27.65
2023-07-03T10:32:53.251Z,28.56
2023-07-03T10:34:04.540Z,28.71
2023-07-03T10:35:19.536Z,28.38
2023-07-03T10:36:27.332Z,28.00
2023-07-03T10:37:34.080Z,28.30
2023-07-03T10:38:45.124Z,28.76
2023-07-03T10:40:18.794Z,28.65
2023-07-03T10:41:32.049Z,28.80
2023-07-03T10:42:49.695Z,27.02
2023-07-03T10:43:57.688Z,27.47
2023-07-03T10:45:07.292Z,27.68
2023-07-03T10:46:17.244Z,28.69
2023-07-03T10:47:48.262Z,29.70
2023-07-03T10:48:54.544Z,30.31
2023-07-03T10:49:58.358Z,29.97
2023-07-03T10:51:18.356Z,30.16
2023-07-03T10:52:35.724Z,29.46
2023-07-03T10:53:54.153Z,28.36
2023-07-03T10:55:17.933Z,28.37
2023-07-03T10:56:38.268Z,28.62
2023-07-03T10:57:58.740Z,27.75
2023-07-03T10:59:03.250Z,27.46
2023-07-03T11:00:13.605Z,27.95
2023-07-03T11:01:19.145Z,28.90
2023-07-03T11:02:55.108Z,28.21
2023-07-03T11:04:24.677Z,27.28
2023-07-03T11:05:32.129Z,28.06
2023-07-03T11:06:55.177Z,27.48
2023-07-03T11:08:12.184Z,28.37
2023-07-03T11:09:35.865Z,27.97
2023-07-03T11:10:57.019Z,28.43
2023-07-03T11:12:13.506Z,29.04
2023-07-03T11:13:25.843Z,28.64
2023-07-03T11:14:40.964Z,28.05
2023-07-03T11:15:47.584Z,27.67
2023-07-03T11:17:13.963Z,28.85
2023-07-03T11:23:36.603Z,27.46
2023-07-03T11:25:10.699Z,26.65
2023-07-03T11:28:01.962Z,28.55
2023-07-03T11:29:06.863Z,27.50
2023-07-03T11:30:10.024Z,26.37
2023-07-03T11:31:15.380Z,27.24
2023-07-03T11:32:18.796Z,27.77
2023-07-03T11:33:22.577Z,27.00
2023-07-03T11:36:50.446Z,27.71
2023-07-03T11:41:00.508Z,25.99
2023-07-03T11:44:31.781Z,28.10
2023-07-03T11:45:33.693Z,28.03
2023-07-03T11:46:35.600Z,27.66
2023-07-03T11:47:37.510Z,26.74
2023-07-03T11:48:39.401Z,27.39
2023-07-03T11:49:49.840Z,26.46
2023-07-03T11:50:57.994Z,26.36
2023-07-03T11:52:02.271Z,27.41
2023-07-03T11:53:04.265Z,26.44
2023-07-03T11:54:20.818Z,27.20
2023-07-03T11:55:36.917Z,27.81
2023-07-03T11:56:40.551Z,28.28
2023-07-03T11:57:49.952Z,28.86
2023-07-03T11:59:13.445Z,27.86
2023-07-03T12:00:23.677Z,27.38
2023-07-03T12:01:33.108Z,27.68
2023-07-03T12:02:41.126Z,28.99
2023-07-03T12:04:16.097Z,27.87
2023-07-03T12:05:42.942Z,28.19
2023-07-03T12:06:46.488Z,27.73
2023-07-03T12:07:48.984Z,28.43
2023-07-03T12:08:51.093Z,28.05
2023-07-03T12:09:53.035Z,28.23
2023-07-03T12:11:03.744Z,28.01
2023-07-03T12:12:14.482Z,27.11
2023-07-03T12:13:28.354Z,26.87
2023-07-03T12:14:42.948Z,28.12
2023-07-03T12:15:44.884Z,27.81
2023-07-03T12:16:48.702Z,28.05
2023-07-03T12:18:03.259Z,28.20
2023-07-03T12:19:13.445Z,28.61
2023-07-03T12:20:22.931Z,26.16
2023-07-03T12:21:25.458Z,26.10
2023-07-03T12:22:29.185Z,26.58
2023-07-03T12:23:40.582Z,27.32
2023-07-03T12:24:42.894Z,27.42
2023-07-03T12:25:44.808Z,27.78
2023-07-03T12:27:07.072Z,27.99
2023-07-03T12:28:12.308Z,27.76
2023-07-03T12:29:18.159Z,27.67
2023-07-03T12:30:31.613Z,27.58
2023-07-03T12:31:33.641Z,26.63
2023-07-03T12:32:37.214Z,28.98
2023-07-03T12:33:52.859Z,28.65
2023-07-03T12:34:55.588Z,28.13
2023-07-03T12:35:57.432Z,28.14
2023-07-03T12:37:06.062Z,29.40
2023-07-03T12:38:10.741Z,29.81
2023-07-03T12:39:15.776Z,30.18
2023-07-03T12:40:20.219Z,29.43
2023-07-03T12:41:29.953Z,29.48
2023-07-03T12:42:32.097Z,29.87
2023-07-03T12:43:35.707Z,28.39
2023-07-03T12:44:37.728Z,28.74
2023-07-03T12:45:39.946Z,29.48
2023-07-03T12:46:44.389Z,29.71
2023-07-03T12:48:00.474Z,29.12
2023-07-03T12:49:18.364Z,30.01
2023-07-03T12:50:20.233Z,30.67
2023-07-03T12:51:22.386Z,30.42
2023-07-03T12:52:26.059Z,31.00
2023-07-03T12:53:33.431Z,30.42
2023-07-03T12:54:35.294Z,29.79
2023-07-03T12:55:38.945Z,30.12
2023-07-03T12:56:43.166Z,30.07
2023-07-03T12:57:45.873Z,30.60
2023-07-03T12:58:47.820Z,31.04
2023-07-03T12:59:53.087Z,30.23
2023-07-03T13:01:02.726Z,29.73
2023-07-03T13:02:05.017Z,31.17
2023-07-03T13:03:13.456Z,31.26
2023-07-03T13:04:16.889Z,30.80
2023-07-03T13:05:22.491Z,30.97
2023-07-03T13:06:30.586Z,32.44
2023-07-03T13:07:34.088Z,32.25
2023-07-03T13:08:36.131Z,31.28
2023-07-03T13:09:44.108Z,31.63
2023-07-03T13:11:03.413Z,32.65
2023-07-03T13:12:18.331Z,32.38
2023-07-03T13:13:20.703Z,31.40
2023-07-03T13:14:26.135Z,32.29
2023-07-03T13:15:40.823Z,32.97
2023-07-03T13:16:48.794Z,31.59
2023-07-03T13:18:03.984Z,31.86
2023-07-03T13:19:06.415Z,31.48
2023-07-03T13:20:29.299Z,32.16
2023-07-03T13:21:33.676Z,32.21
2023-07-03T13:22:35.598Z,31.67
2023-07-03T13:23:42.749Z,31.96
2023-07-03T13:24:49.817Z,32.62
2023-07-03T13:25:54.723Z,33.60
2023-07-03T13:26:58.340Z,33.55
2023-07-03T13:28:01.683Z,33.40
2023-07-03T13:29:05.018Z,33.59
2023-07-03T13:30:21.387Z,33.69
2023-07-03T13:31:29.673Z,32.25
2023-07-03T13:32:52.190Z,31.24
2023-07-03T13:34:06.655Z,31.64
2023-07-03T13:35:09.152Z,32.25
2023-07-03T13:36:33.853Z,32.37
2023-07-03T13:37:39.987Z,32.14
2023-07-03T13:38:41.851Z,33.30
2023-07-03T13:39:46.552Z,33.85
2023-07-03T13:40:56.154Z,33.75
2023-07-03T13:41:58.133Z,33.03
2023-07-03T13:43:00.014Z,33.01
2023-07-03T13:44:04.262Z,32.15
2023-07-03T13:45:09.056Z,32.33
2023-07-03T13:46:11.240Z,33.64
2023-07-03T13:47:13.180Z,33.93
2023-07-03T13:48:15.070Z,33.61
2023-07-03T13:49:18.174Z,33.61
2023-07-03T13:50:20.509Z,32.91
2023-07-03T13:51:23.226Z,31.95
2023-07-03T13:52:25.164Z,33.58
2023-07-03T13:53:27.636Z,33.98
2023-07-03T13:54:29.542Z,34.22
2023-07-03T13:55:31.627Z,32.94
2023-07-03T13:56:37.716Z,33.19
2023-07-03T13:57:39.589Z,33.34
2023-07-03T13:58:41.461Z,33.53
2023-07-03T13:59:43.263Z,33.95
2023-07-03T14:00:45.094Z,34.49
2023-07-03T14:01:47.955Z,34.95
2023-07-03T14:02:50.477Z,34.11
2023-07-03T14:03:53.034Z,34.33
2023-07-03T14:04:54.995Z,34.58
2023-07-03T14:05:56.929Z,34.81
2023-07-03T14:06:59.165Z,34.87
2023-07-03T14:08:01.038Z,34.12
2023-07-03T14:09:03.559Z,34.06
2023-07-03T14:10:06.183Z,35.01
2023-07-03T14:11:11.410Z,34.49
2023-07-03T14:12:13.607Z,33.84
2023-07-03T14:13:15.585Z,34.21
2023-07-03T14:14:17.521Z,34.46
2023-07-03T14:15:26.741Z,34.72
2023-07-03T14:16:29.439Z,35.66
2023-07-03T14:17:31.799Z,35.32
2023-07-03T14:18:33.882Z,35.64
2023-07-03T14:19:35.754Z,35.60
2023-07-03T14:20:37.789Z,35.74
2023-07-03T14:21:39.714Z,35.02
2023-07-03T14:22:42.811Z,34.98
2023-07-03T14:23:45.665Z,35.66
2023-07-03T14:24:47.589Z,34.82
2023-07-03T14:25:49.815Z,34.93